Grand Coulee, WA (99133)

7:32 PM PDT on September 20, 2014 (GMT -0700)
3 miles ESE of Grand Coulee Dam, in Lincoln County, WA | Change Station
CLOSE
Current Station
Personal Weather Station
Location: Grand Coulee, WA
Elevation: 1575 ft
Nearby Weather Stations

Elev 1575 ft 47.92 °N, 118.94 °W | Updated 2 minutes ago

Clear
Clear
72.1 °F
Feels Like 77 °F
N
2.0
Wind Variable Wind from SE
Gusts 2.0 mph

Today
High -- | Low -- °F
--% Chance of Precip.
Yesterday
High -- | Low -- °F
Precip. -- in
6:40 AM 6:57 PM
Waning Crescent, 9% visible
Pressure 30.02 in
Visibility 10.0 miles
Clouds Clear
Heat Index 77 °F
Dew Point 45 °F
Humidity 38%
Rainfall 0.00 in
Snow Depth 0 in , 0 in , 0 in
UV 0 out of 12
Pollen 7.80 out of 12
Air Quality Not available.
Flu Activity Not available.
METAR KOMK 210153Z AUTO 35008KT 10SM CLR 23/03 A3003 RMK AO2 SLP165 T02330033

More Conditions Fewer Conditions

Pressure 30.02 in
Visibility 10.0 miles
Clouds Clear
Heat Index 77 °F
Dew Point 45 °F
Humidity 38%
Rainfall 0.00 in
Snow Depth 0 in , 0 in , 0 in
UV 0 out of 12
Pollen 7.80 out of 12
Air Quality Not available.
Flu Activity Not available.
METAR KOMK 210153Z AUTO 35008KT 10SM CLR 23/03 A3003 RMK AO2 SLP165 T02330033

More Conditions Fewer Conditions

10-Day Weather Forecast

Almanac

Astronomy

Sep. 20, 2014 Rise Set
Actual Time 6:40 AM PDT 6:57 PM PDT
Civil Twilight 6:09 AM PDT 7:28 PM PDT
Nautical Twilight 5:32 AM PDT 8:05 PM PDT
Astronomical Twilight 4:54 AM PDT 8:42 PM PDT
Moon 3:11 AM PDT (9/20) 5:13 PM PDT (9/20)
Length of Visible Light 13h 19m
Length of Day
12h 17m
Tomorrow will be 3m 26s shorter.
Waning Crescent, 9% of the Moon is Illuminated
Today
Waning Crescent
Sep 24
New
Oct 1
First Quarter
Oct 8
Full
Oct 15
Last Quarter

Today's Extremes

State Highs State Lows

Community

WunderPhotos

Upload Photos

1,755,032 photos uploaded!

WunderBlogs® & News

Nearby

Snow Depth

Station Depth Elevation
Stevens Pass 0 in 4070 ft
Spruce Springs 0 in 5700 ft
Quartz Peak 0 in 4700 ft
Meadows Pass 0 in 3500 ft
Sentinel Butte 0 in 4920 ft

Earthquake Activity

City Distance Mag. Time & Date
No recent earthquake activity has been reported nearby.
Minimum magnitude displayed is 2.5.

Coastal Water Temperatures

Place Temperature
No Stations Reporting

Nearby Weather Stations